TimeEST,TemperatureF,Dew PointF,Humidity,Sea Level PressureIn,VisibilityMPH,Wind Direction,Wind SpeedMPH,Gust SpeedMPH,PrecipitationIn,Events,Conditions,WindDirDegrees,DateUTC
12:53 AM,25.0,21.9,88,30.24,8.0,Calm,Calm,-,N/A,,Clear,0,2012-11-22 05:53:00
1:53 AM,26.1,24.1,92,30.23,10.0,South,5.8,-,N/A,,Clear,170,2012-11-22 06:53:00
2:53 AM,30.0,27.0,88,30.22,10.0,South,3.5,-,N/A,,Clear,180,2012-11-22 07:53:00
3:53 AM,27.0,24.1,89,30.22,10.0,South,3.5,-,N/A,,Clear,190,2012-11-22 08:53:00
4:53 AM,30.9,28.0,89,30.22,7.0,South,4.6,-,N/A,,Clear,190,2012-11-22 09:53:00
5:53 AM,30.0,28.0,92,30.22,7.0,SSW,5.8,-,N/A,,Clear,200,2012-11-22 10:53:00
6:53 AM,30.9,28.9,92,30.22,5.0,South,5.8,-,N/A,,Scattered Clouds,190,2012-11-22 11:53:00
7:03 AM,30.2,28.4,93,30.19,5.0,SSW,5.8,-,N/A,,Mostly Cloudy,200,2012-11-22 12:03:00
7:37 AM,30.2,28.4,93,30.20,2.5,SSW,6.9,-,N/A,,Overcast,200,2012-11-22 12:37:00
7:42 AM,30.2,28.4,93,30.20,1.2,SSW,5.8,-,N/A,,Overcast,200,2012-11-22 12:42:00
7:53 AM,30.9,28.9,92,30.23,1.0,SW,5.8,-,N/A,,Overcast,220,2012-11-22 12:53:00
8:04 AM,30.2,28.4,93,30.20,0.8,SSW,5.8,-,N/A,,Overcast,200,2012-11-22 13:04:00
8:13 AM,30.2,28.4,93,30.20,1.2,SSW,8.1,-,N/A,,Overcast,210,2012-11-22 13:13:00
8:33 AM,30.2,28.4,93,30.20,0.8,SSW,5.8,-,N/A,,Overcast,210,2012-11-22 13:33:00
8:53 AM,32.0,30.0,92,30.22,0.8,SSW,5.8,-,N/A,,Overcast,210,2012-11-22 13:53:00
9:06 AM,32.0,30.2,93,30.20,1.2,SSW,6.9,-,N/A,,Overcast,210,2012-11-22 14:06:00
9:26 AM,33.8,30.2,87,30.20,2.0,SSW,5.8,-,N/A,,Overcast,210,2012-11-22 14:26:00
9:36 AM,33.8,32.0,93,30.20,5.0,SW,6.9,-,N/A,,Overcast,220,2012-11-22 14:36:00
9:53 AM,35.1,33.1,92,30.22,6.0,SSW,9.2,-,N/A,,Mostly Cloudy,210,2012-11-22 14:53:00
10:53 AM,37.9,35.1,89,30.20,9.0,SW,8.1,-,N/A,,Overcast,230,2012-11-22 15:53:00
11:11 AM,37.4,33.8,87,30.17,9.0,SW,8.1,-,N/A,,Scattered Clouds,220,2012-11-22 16:11:00
11:53 AM,39.9,34.0,79,30.18,10.0,SSW,6.9,-,N/A,,Clear,210,2012-11-22 16:53:00
12:53 PM,44.1,35.1,71,30.16,10.0,SSW,5.8,-,N/A,,Clear,200,2012-11-22 17:53:00
1:53 PM,45.0,34.0,65,30.14,10.0,SW,5.8,-,N/A,,Clear,220,2012-11-22 18:53:00
2:53 PM,46.0,33.1,61,30.13,10.0,SSW,6.9,-,N/A,,Clear,200,2012-11-22 19:53:00
3:53 PM,43.0,32.0,65,30.13,10.0,SSW,5.8,-,N/A,,Clear,200,2012-11-22 20:53:00
4:53 PM,41.0,33.1,73,30.13,10.0,SSW,5.8,-,N/A,,Clear,200,2012-11-22 21:53:00
5:53 PM,39.9,33.1,77,30.13,10.0,SSW,8.1,-,N/A,,Clear,210,2012-11-22 22:53:00
6:53 PM,39.0,33.1,79,30.11,10.0,SSW,9.2,-,N/A,,Clear,210,2012-11-22 23:53:00
7:53 PM,39.0,34.0,82,30.11,10.0,SSW,6.9,-,N/A,,Clear,210,2012-11-23 00:53:00
8:53 PM,39.0,35.1,86,30.09,10.0,SSW,4.6,-,N/A,,Clear,200,2012-11-23 01:53:00
9:11 PM,39.2,35.6,87,30.07,10.0,South,6.9,-,N/A,,Scattered Clouds,180,2012-11-23 02:11:00
9:53 PM,37.9,34.0,86,30.08,10.0,SSW,5.8,-,N/A,,Clear,200,2012-11-23 02:53:00
10:14 PM,37.4,35.6,93,30.05,9.0,SSW,6.9,-,N/A,,Scattered Clouds,200,2012-11-23 03:14:00
10:24 PM,37.4,35.6,93,30.05,9.0,SSW,4.6,-,N/A,,Mostly Cloudy,210,2012-11-23 03:24:00
10:53 PM,37.0,34.0,89,30.06,9.0,SSW,8.1,-,N/A,,Mostly Cloudy,210,2012-11-23 03:53:00
11:07 PM,37.4,33.8,87,30.04,9.0,SSW,8.1,-,N/A,,Scattered Clouds,200,2012-11-23 04:07:00
11:24 PM,37.4,33.8,87,30.03,8.0,SSW,9.2,19.6,N/A,,Mostly Cloudy,200,2012-11-23 04:24:00
11:53 PM,37.0,35.1,93,30.04,8.0,South,9.2,-,N/A,,Overcast,190,2012-11-23 04:53:00